Greenwood, South Carolina
Current Conditions -  °F | °C
As of 10:56 AM on Thursday 27 Nov 2014 (Local Time) from KGRD Reporting Station
Clear Clear  
Wind Chill: 44°   Ceiling: Unl
Heat Index: 49°   Visibility: 10mi
Dew Point: 27°   Wind: 14mph
Humidity: 43%   Direction: 280°W
Pressure: 30.17"   Gusts: 24mph
Location:  34.19°N, 82.16°W
Report Text: KGRD 271556Z AUTO 28012G21KT 10SM CLR 09/M03 A3017 RMK AO2 SLP218 T00941028
Loading
Personal Weather Stations






























Interactive Weather Map New forecast layout! Learn more

10-Day Weather Forecast

Advertisements
Track Severe Weather on mobile